sensor_id;sensor_type;location;lat;lon;timestamp;P1;durP1;ratioP1;P2;durP2;ratioP2
14241;SDS011;7205;50.864;12.766;2023-07-16T00:01:26;1.30;;;1.13;;
14241;SDS011;7205;50.864;12.766;2023-07-16T00:03:52;1.37;;;1.20;;
14241;SDS011;7205;50.864;12.766;2023-07-16T00:06:19;1.53;;;1.10;;
14241;SDS011;7205;50.864;12.766;2023-07-16T00:08:46;1.80;;;1.10;;
14241;SDS011;7205;50.864;12.766;2023-07-16T00:11:13;1.77;;;1.23;;
14241;SDS011;7205;50.864;12.766;2023-07-16T00:13:39;1.13;;;1.03;;
14241;SDS011;7205;50.864;12.766;2023-07-16T00:16:11;2.17;;;1.23;;
14241;SDS011;7205;50.864;12.766;2023-07-16T00:18:40;2.60;;;1.30;;
14241;SDS011;7205;50.864;12.766;2023-07-16T00:21:07;1.57;;;1.30;;
14241;SDS011;7205;50.864;12.766;2023-07-16T00:23:34;8.60;;;1.90;;
14241;SDS011;7205;50.864;12.766;2023-07-16T00:26:02;2.30;;;1.43;;
14241;SDS011;7205;50.864;12.766;2023-07-16T00:28:29;4.10;;;1.87;;
14241;SDS011;7205;50.864;12.766;2023-07-16T00:30:56;1.80;;;1.40;;
14241;SDS011;7205;50.864;12.766;2023-07-16T00:33:23;1.73;;;1.40;;
14241;SDS011;7205;50.864;12.766;2023-07-16T00:35:51;1.70;;;1.57;;
14241;SDS011;7205;50.864;12.766;2023-07-16T00:38:17;2.97;;;1.60;;
14241;SDS011;7205;50.864;12.766;2023-07-16T00:40:44;4.57;;;1.70;;
14241;SDS011;7205;50.864;12.766;2023-07-16T00:43:12;1.83;;;1.60;;
14241;SDS011;7205;50.864;12.766;2023-07-16T00:45:40;4.40;;;1.63;;
14241;SDS011;7205;50.864;12.766;2023-07-16T00:48:07;3.30;;;1.83;;
14241;SDS011;7205;50.864;12.766;2023-07-16T00:50:34;3.80;;;1.60;;
14241;SDS011;7205;50.864;12.766;2023-07-16T00:53:06;3.37;;;1.60;;
14241;SDS011;7205;50.864;12.766;2023-07-16T00:55:34;4.13;;;2.00;;
14241;SDS011;7205;50.864;12.766;2023-07-16T00:58:03;1.80;;;1.70;;
14241;SDS011;7205;50.864;12.766;2023-07-16T01:00:31;2.13;;;1.93;;
14241;SDS011;7205;50.864;12.766;2023-07-16T01:02:58;2.30;;;2.10;;
14241;SDS011;7205;50.864;12.766;2023-07-16T01:05:25;2.47;;;2.17;;
14241;SDS011;7205;50.864;12.766;2023-07-16T01:07:57;1.90;;;1.80;;
14241;SDS011;7205;50.864;12.766;2023-07-16T01:10:29;7.73;;;2.17;;
14241;SDS011;7205;50.864;12.766;2023-07-16T01:12:57;3.97;;;2.30;;
14241;SDS011;7205;50.864;12.766;2023-07-16T01:15:25;2.63;;;2.10;;
14241;SDS011;7205;50.864;12.766;2023-07-16T01:17:52;2.00;;;1.83;;
14241;SDS011;7205;50.864;12.766;2023-07-16T01:20:18;1.87;;;1.77;;
14241;SDS011;7205;50.864;12.766;2023-07-16T01:22:48;2.63;;;1.80;;
14241;SDS011;7205;50.864;12.766;2023-07-16T01:25:35;2.37;;;2.00;;
14241;SDS011;7205;50.864;12.766;2023-07-16T01:28:15;2.77;;;2.57;;
14241;SDS011;7205;50.864;12.766;2023-07-16T01:30:54;2.57;;;2.30;;
14241;SDS011;7205;50.864;12.766;2023-07-16T01:33:24;3.27;;;2.40;;
14241;SDS011;7205;50.864;12.766;2023-07-16T01:35:53;5.00;;;2.70;;
14241;SDS011;7205;50.864;12.766;2023-07-16T01:38:21;2.83;;;2.30;;
14241;SDS011;7205;50.864;12.766;2023-07-16T01:40:48;4.53;;;2.60;;
14241;SDS011;7205;50.864;12.766;2023-07-16T01:43:15;2.97;;;2.67;;
14241;SDS011;7205;50.864;12.766;2023-07-16T01:45:42;2.70;;;2.50;;
14241;SDS011;7205;50.864;12.766;2023-07-16T01:48:14;3.00;;;2.73;;
14241;SDS011;7205;50.864;12.766;2023-07-16T01:50:52;2.83;;;2.63;;
14241;SDS011;7205;50.864;12.766;2023-07-16T01:53:18;4.37;;;2.77;;
14241;SDS011;7205;50.864;12.766;2023-07-16T01:55:45;4.70;;;3.00;;
14241;SDS011;7205;50.864;12.766;2023-07-16T01:58:12;4.60;;;2.90;;
14241;SDS011;7205;50.864;12.766;2023-07-16T02:00:39;2.37;;;2.20;;
14241;SDS011;7205;50.864;12.766;2023-07-16T02:03:07;2.70;;;2.50;;
14241;SDS011;7205;50.864;12.766;2023-07-16T02:05:35;2.83;;;2.50;;
14241;SDS011;7205;50.864;12.766;2023-07-16T02:08:03;4.20;;;2.60;;
14241;SDS011;7205;50.864;12.766;2023-07-16T02:10:32;3.13;;;2.60;;
14241;SDS011;7205;50.864;12.766;2023-07-16T02:12:58;3.53;;;2.67;;
14241;SDS011;7205;50.864;12.766;2023-07-16T02:15:25;4.00;;;2.33;;
14241;SDS011;7205;50.864;12.766;2023-07-16T02:17:52;2.90;;;2.30;;
14241;SDS011;7205;50.864;12.766;2023-07-16T02:20:19;2.10;;;2.00;;
14241;SDS011;7205;50.864;12.766;2023-07-16T02:22:47;2.20;;;2.10;;
14241;SDS011;7205;50.864;12.766;2023-07-16T02:25:14;3.47;;;2.20;;
14241;SDS011;7205;50.864;12.766;2023-07-16T02:27:41;2.67;;;2.47;;
14241;SDS011;7205;50.864;12.766;2023-07-16T02:30:08;2.60;;;2.40;;
14241;SDS011;7205;50.864;12.766;2023-07-16T02:32:35;2.30;;;2.20;;
14241;SDS011;7205;50.864;12.766;2023-07-16T02:35:02;2.90;;;2.23;;
14241;SDS011;7205;50.864;12.766;2023-07-16T02:37:29;1.97;;;1.87;;
14241;SDS011;7205;50.864;12.766;2023-07-16T02:39:58;3.20;;;2.20;;
14241;SDS011;7205;50.864;12.766;2023-07-16T02:42:25;2.37;;;1.83;;
14241;SDS011;7205;50.864;12.766;2023-07-16T02:44:52;2.00;;;1.90;;
14241;SDS011;7205;50.864;12.766;2023-07-16T02:47:19;1.80;;;1.70;;
14241;SDS011;7205;50.864;12.766;2023-07-16T02:49:50;2.70;;;2.47;;
14241;SDS011;7205;50.864;12.766;2023-07-16T02:52:17;1.70;;;1.70;;
14241;SDS011;7205;50.864;12.766;2023-07-16T02:54:44;3.47;;;2.17;;
14241;SDS011;7205;50.864;12.766;2023-07-16T02:57:12;3.43;;;1.90;;
14241;SDS011;7205;50.864;12.766;2023-07-16T02:59:39;3.00;;;1.70;;
14241;SDS011;7205;50.864;12.766;2023-07-16T03:02:06;1.80;;;1.70;;
14241;SDS011;7205;50.864;12.766;2023-07-16T03:04:32;3.53;;;1.93;;
14241;SDS011;7205;50.864;12.766;2023-07-16T03:06:59;2.30;;;2.10;;
14241;SDS011;7205;50.864;12.766;2023-07-16T03:09:26;1.90;;;1.80;;
14241;SDS011;7205;50.864;12.766;2023-07-16T03:11:53;3.13;;;1.80;;
14241;SDS011;7205;50.864;12.766;2023-07-16T03:14:21;1.90;;;1.70;;
14241;SDS011;7205;50.864;12.766;2023-07-16T03:16:48;1.80;;;1.70;;
14241;SDS011;7205;50.864;12.766;2023-07-16T03:19:15;2.93;;;1.50;;
14241;SDS011;7205;50.864;12.766;2023-07-16T03:21:42;2.67;;;1.80;;
14241;SDS011;7205;50.864;12.766;2023-07-16T03:24:09;1.63;;;1.53;;
14241;SDS011;7205;50.864;12.766;2023-07-16T03:26:35;2.57;;;1.93;;
14241;SDS011;7205;50.864;12.766;2023-07-16T03:29:02;2.20;;;2.00;;
14241;SDS011;7205;50.864;12.766;2023-07-16T03:31:31;1.80;;;1.70;;
14241;SDS011;7205;50.864;12.766;2023-07-16T03:33:58;2.60;;;1.90;;
14241;SDS011;7205;50.864;12.766;2023-07-16T03:36:28;3.90;;;2.10;;
14241;SDS011;7205;50.864;12.766;2023-07-16T03:38:55;2.17;;;1.80;;
14241;SDS011;7205;50.864;12.766;2023-07-16T03:41:22;2.00;;;1.90;;
14241;SDS011;7205;50.864;12.766;2023-07-16T03:43:48;2.03;;;1.83;;
14241;SDS011;7205;50.864;12.766;2023-07-16T03:46:18;1.80;;;1.70;;
14241;SDS011;7205;50.864;12.766;2023-07-16T03:48:46;1.97;;;1.87;;
14241;SDS011;7205;50.864;12.766;2023-07-16T03:51:14;2.17;;;1.97;;
14241;SDS011;7205;50.864;12.766;2023-07-16T03:53:42;2.13;;;2.03;;
14241;SDS011;7205;50.864;12.766;2023-07-16T03:56:09;3.00;;;1.93;;
14241;SDS011;7205;50.864;12.766;2023-07-16T03:58:36;2.43;;;1.80;;
14241;SDS011;7205;50.864;12.766;2023-07-16T04:01:05;1.53;;;1.53;;
14241;SDS011;7205;50.864;12.766;2023-07-16T04:03:32;2.33;;;1.70;;
14241;SDS011;7205;50.864;12.766;2023-07-16T04:06:03;3.23;;;2.93;;
14241;SDS011;7205;50.864;12.766;2023-07-16T04:08:31;2.40;;;2.20;;
14241;SDS011;7205;50.864;12.766;2023-07-16T04:10:58;3.13;;;1.90;;
14241;SDS011;7205;50.864;12.766;2023-07-16T04:13:25;2.20;;;2.00;;
14241;SDS011;7205;50.864;12.766;2023-07-16T04:15:52;2.07;;;1.80;;
14241;SDS011;7205;50.864;12.766;2023-07-16T04:18:20;3.40;;;1.57;;
14241;SDS011;7205;50.864;12.766;2023-07-16T04:20:47;1.70;;;1.60;;
14241;SDS011;7205;50.864;12.766;2023-07-16T04:23:16;2.50;;;1.57;;
14241;SDS011;7205;50.864;12.766;2023-07-16T04:25:42;1.47;;;1.47;;
14241;SDS011;7205;50.864;12.766;2023-07-16T04:28:09;1.80;;;1.50;;
14241;SDS011;7205;50.864;12.766;2023-07-16T04:30:36;1.53;;;1.43;;
14241;SDS011;7205;50.864;12.766;2023-07-16T04:33:03;2.07;;;1.53;;
14241;SDS011;7205;50.864;12.766;2023-07-16T04:35:30;2.03;;;1.80;;
14241;SDS011;7205;50.864;12.766;2023-07-16T04:37:57;1.67;;;1.57;;
14241;SDS011;7205;50.864;12.766;2023-07-16T04:40:25;1.70;;;1.60;;
14241;SDS011;7205;50.864;12.766;2023-07-16T04:42:52;1.63;;;1.53;;
14241;SDS011;7205;50.864;12.766;2023-07-16T04:45:18;1.97;;;1.60;;
14241;SDS011;7205;50.864;12.766;2023-07-16T04:47:45;1.20;;;1.20;;
14241;SDS011;7205;50.864;12.766;2023-07-16T04:50:12;1.73;;;1.47;;
14241;SDS011;7205;50.864;12.766;2023-07-16T04:52:39;1.57;;;1.30;;
14241;SDS011;7205;50.864;12.766;2023-07-16T04:55:06;1.37;;;1.20;;
14241;SDS011;7205;50.864;12.766;2023-07-16T04:57:34;1.80;;;1.40;;
14241;SDS011;7205;50.864;12.766;2023-07-16T05:00:01;1.40;;;1.30;;
14241;SDS011;7205;50.864;12.766;2023-07-16T05:02:31;1.50;;;1.23;;
14241;SDS011;7205;50.864;12.766;2023-07-16T05:04:58;1.57;;;1.30;;
14241;SDS011;7205;50.864;12.766;2023-07-16T05:07:24;3.17;;;1.43;;
14241;SDS011;7205;50.864;12.766;2023-07-16T05:09:51;1.20;;;1.20;;
14241;SDS011;7205;50.864;12.766;2023-07-16T05:12:18;1.60;;;1.50;;
14241;SDS011;7205;50.864;12.766;2023-07-16T05:14:47;5.03;;;1.63;;
14241;SDS011;7205;50.864;12.766;2023-07-16T05:17:14;1.60;;;1.50;;
14241;SDS011;7205;50.864;12.766;2023-07-16T05:19:41;1.60;;;1.50;;
14241;SDS011;7205;50.864;12.766;2023-07-16T05:22:09;1.70;;;1.60;;
14241;SDS011;7205;50.864;12.766;2023-07-16T05:24:36;1.40;;;1.30;;
14241;SDS011;7205;50.864;12.766;2023-07-16T05:27:03;1.97;;;1.77;;
14241;SDS011;7205;50.864;12.766;2023-07-16T05:29:30;2.00;;;1.40;;
14241;SDS011;7205;50.864;12.766;2023-07-16T05:31:58;1.27;;;1.20;;
14241;SDS011;7205;50.864;12.766;2023-07-16T05:34:25;1.43;;;1.33;;
14241;SDS011;7205;50.864;12.766;2023-07-16T05:36:52;1.53;;;1.30;;
14241;SDS011;7205;50.864;12.766;2023-07-16T05:39:19;2.20;;;1.40;;
14241;SDS011;7205;50.864;12.766;2023-07-16T05:41:46;2.63;;;1.60;;
14241;SDS011;7205;50.864;12.766;2023-07-16T05:44:13;3.27;;;1.40;;
14241;SDS011;7205;50.864;12.766;2023-07-16T05:46:40;1.60;;;1.50;;
14241;SDS011;7205;50.864;12.766;2023-07-16T05:49:08;2.03;;;1.30;;
14241;SDS011;7205;50.864;12.766;2023-07-16T05:51:35;1.50;;;1.40;;
14241;SDS011;7205;50.864;12.766;2023-07-16T05:54:02;1.45;;;1.35;;
14241;SDS011;7205;50.864;12.766;2023-07-16T05:56:29;1.17;;;1.17;;
14241;SDS011;7205;50.864;12.766;2023-07-16T05:58:55;1.30;;;1.20;;
14241;SDS011;7205;50.864;12.766;2023-07-16T06:01:22;4.10;;;1.40;;
14241;SDS011;7205;50.864;12.766;2023-07-16T06:03:49;1.40;;;1.30;;
14241;SDS011;7205;50.864;12.766;2023-07-16T06:06:17;1.70;;;1.60;;
14241;SDS011;7205;50.864;12.766;2023-07-16T06:08:44;1.97;;;1.50;;
14241;SDS011;7205;50.864;12.766;2023-07-16T06:11:11;1.30;;;1.30;;
14241;SDS011;7205;50.864;12.766;2023-07-16T06:13:38;2.03;;;1.20;;
14241;SDS011;7205;50.864;12.766;2023-07-16T06:16:05;1.73;;;1.50;;
14241;SDS011;7205;50.864;12.766;2023-07-16T06:18:32;1.40;;;1.40;;
14241;SDS011;7205;50.864;12.766;2023-07-16T06:20:59;1.73;;;1.50;;
14241;SDS011;7205;50.864;12.766;2023-07-16T06:23:27;1.57;;;1.40;;
14241;SDS011;7205;50.864;12.766;2023-07-16T06:25:54;3.70;;;1.53;;
14241;SDS011;7205;50.864;12.766;2023-07-16T06:28:21;1.40;;;1.30;;
14241;SDS011;7205;50.864;12.766;2023-07-16T06:30:48;1.70;;;1.30;;
14241;SDS011;7205;50.864;12.766;2023-07-16T06:33:17;1.40;;;1.30;;
14241;SDS011;7205;50.864;12.766;2023-07-16T06:35:44;1.40;;;1.30;;
14241;SDS011;7205;50.864;12.766;2023-07-16T06:38:12;2.50;;;1.30;;
14241;SDS011;7205;50.864;12.766;2023-07-16T06:40:45;1.50;;;1.40;;
14241;SDS011;7205;50.864;12.766;2023-07-16T06:43:12;1.43;;;1.33;;
14241;SDS011;7205;50.864;12.766;2023-07-16T06:45:39;1.43;;;1.33;;
14241;SDS011;7205;50.864;12.766;2023-07-16T06:48:06;1.20;;;1.20;;
14241;SDS011;7205;50.864;12.766;2023-07-16T06:50:33;1.50;;;1.40;;
14241;SDS011;7205;50.864;12.766;2023-07-16T06:53:00;3.90;;;1.30;;
14241;SDS011;7205;50.864;12.766;2023-07-16T06:55:27;1.97;;;1.20;;
14241;SDS011;7205;50.864;12.766;2023-07-16T06:57:55;1.40;;;1.30;;
14241;SDS011;7205;50.864;12.766;2023-07-16T07:00:22;1.37;;;1.27;;
14241;SDS011;7205;50.864;12.766;2023-07-16T07:02:49;2.77;;;1.20;;
14241;SDS011;7205;50.864;12.766;2023-07-16T07:05:15;1.43;;;1.33;;
14241;SDS011;7205;50.864;12.766;2023-07-16T07:07:42;1.40;;;1.30;;
14241;SDS011;7205;50.864;12.766;2023-07-16T07:10:10;1.23;;;1.20;;
14241;SDS011;7205;50.864;12.766;2023-07-16T07:12:37;3.37;;;1.37;;
14241;SDS011;7205;50.864;12.766;2023-07-16T07:15:07;1.40;;;1.30;;
14241;SDS011;7205;50.864;12.766;2023-07-16T07:17:34;1.43;;;1.37;;
14241;SDS011;7205;50.864;12.766;2023-07-16T07:20:02;1.33;;;1.23;;
14241;SDS011;7205;50.864;12.766;2023-07-16T07:22:30;2.60;;;2.28;;
14241;SDS011;7205;50.864;12.766;2023-07-16T07:24:57;3.80;;;1.77;;
14241;SDS011;7205;50.864;12.766;2023-07-16T07:27:24;1.42;;;1.35;;
14241;SDS011;7205;50.864;12.766;2023-07-16T07:29:51;2.58;;;1.35;;
14241;SDS011;7205;50.864;12.766;2023-07-16T07:32:20;1.40;;;1.20;;
14241;SDS011;7205;50.864;12.766;2023-07-16T07:34:47;1.83;;;1.40;;
14241;SDS011;7205;50.864;12.766;2023-07-16T07:37:17;2.60;;;1.40;;
14241;SDS011;7205;50.864;12.766;2023-07-16T07:39:51;1.30;;;1.20;;
14241;SDS011;7205;50.864;12.766;2023-07-16T07:42:27;1.50;;;1.38;;
14241;SDS011;7205;50.864;12.766;2023-07-16T07:44:57;1.50;;;1.40;;
14241;SDS011;7205;50.864;12.766;2023-07-16T07:47:26;1.70;;;1.10;;
14241;SDS011;7205;50.864;12.766;2023-07-16T07:49:53;1.60;;;1.50;;
14241;SDS011;7205;50.864;12.766;2023-07-16T07:52:20;2.10;;;1.63;;
14241;SDS011;7205;50.864;12.766;2023-07-16T07:54:47;1.53;;;1.43;;
14241;SDS011;7205;50.864;12.766;2023-07-16T07:57:14;2.42;;;1.45;;
14241;SDS011;7205;50.864;12.766;2023-07-16T07:59:40;1.60;;;1.20;;
14241;SDS011;7205;50.864;12.766;2023-07-16T08:02:07;2.80;;;1.50;;
14241;SDS011;7205;50.864;12.766;2023-07-16T08:04:36;2.20;;;1.70;;
14241;SDS011;7205;50.864;12.766;2023-07-16T08:07:03;1.95;;;1.10;;
14241;SDS011;7205;50.864;12.766;2023-07-16T08:09:30;2.08;;;1.40;;
14241;SDS011;7205;50.864;12.766;2023-07-16T08:11:57;1.92;;;1.33;;
14241;SDS011;7205;50.864;12.766;2023-07-16T08:14:27;1.58;;;1.48;;
14241;SDS011;7205;50.864;12.766;2023-07-16T08:21:09;2.47;;;1.45;;
14241;SDS011;7205;50.864;12.766;2023-07-16T08:23:41;3.67;;;1.40;;
14241;SDS011;7205;50.864;12.766;2023-07-16T08:26:07;3.75;;;1.58;;
14241;SDS011;7205;50.864;12.766;2023-07-16T08:28:34;1.88;;;1.25;;
14241;SDS011;7205;50.864;12.766;2023-07-16T08:31:01;1.83;;;1.13;;
14241;SDS011;7205;50.864;12.766;2023-07-16T08:33:28;2.95;;;1.40;;
14241;SDS011;7205;50.864;12.766;2023-07-16T08:35:55;2.75;;;1.38;;
14241;SDS011;7205;50.864;12.766;2023-07-16T08:38:23;1.20;;;1.10;;
14241;SDS011;7205;50.864;12.766;2023-07-16T08:40:50;1.40;;;1.30;;
14241;SDS011;7205;50.864;12.766;2023-07-16T08:43:17;2.47;;;1.40;;
14241;SDS011;7205;50.864;12.766;2023-07-16T08:45:45;3.97;;;1.10;;
14241;SDS011;7205;50.864;12.766;2023-07-16T08:48:13;4.35;;;1.40;;
14241;SDS011;7205;50.864;12.766;2023-07-16T08:50:40;6.03;;;2.05;;
14241;SDS011;7205;50.864;12.766;2023-07-16T08:53:08;1.65;;;1.42;;
14241;SDS011;7205;50.864;12.766;2023-07-16T08:55:36;3.53;;;1.23;;
14241;SDS011;7205;50.864;12.766;2023-07-16T08:58:04;1.27;;;1.15;;
14241;SDS011;7205;50.864;12.766;2023-07-16T09:00:31;2.15;;;1.10;;
14241;SDS011;7205;50.864;12.766;2023-07-16T09:02:59;1.52;;;1.33;;
14241;SDS011;7205;50.864;12.766;2023-07-16T09:05:26;4.25;;;1.48;;
14241;SDS011;7205;50.864;12.766;2023-07-16T09:07:53;2.38;;;1.08;;
14241;SDS011;7205;50.864;12.766;2023-07-16T09:10:20;3.88;;;1.67;;
14241;SDS011;7205;50.864;12.766;2023-07-16T09:12:48;1.63;;;1.48;;
14241;SDS011;7205;50.864;12.766;2023-07-16T09:15:16;1.63;;;1.52;;
14241;SDS011;7205;50.864;12.766;2023-07-16T09:17:48;1.35;;;1.20;;
14241;SDS011;7205;50.864;12.766;2023-07-16T09:20:18;1.63;;;1.38;;
14241;SDS011;7205;50.864;12.766;2023-07-16T09:22:58;1.65;;;1.55;;
14241;SDS011;7205;50.864;12.766;2023-07-16T09:25:30;1.58;;;1.40;;
14241;SDS011;7205;50.864;12.766;2023-07-16T09:31:09;2.92;;;1.50;;
14241;SDS011;7205;50.864;12.766;2023-07-16T09:33:37;1.77;;;1.67;;
14241;SDS011;7205;50.864;12.766;2023-07-16T09:36:04;1.50;;;1.40;;
14241;SDS011;7205;50.864;12.766;2023-07-16T09:38:31;3.50;;;1.27;;
14241;SDS011;7205;50.864;12.766;2023-07-16T09:40:59;1.75;;;1.55;;
14241;SDS011;7205;50.864;12.766;2023-07-16T09:43:29;1.60;;;1.40;;
14241;SDS011;7205;50.864;12.766;2023-07-16T09:45:57;3.13;;;1.50;;
14241;SDS011;7205;50.864;12.766;2023-07-16T09:48:24;2.33;;;1.40;;
14241;SDS011;7205;50.864;12.766;2023-07-16T09:50:51;2.42;;;1.48;;
14241;SDS011;7205;50.864;12.766;2023-07-16T09:53:20;1.38;;;1.27;;
14241;SDS011;7205;50.864;12.766;2023-07-16T09:55:48;2.05;;;1.35;;
14241;SDS011;7205;50.864;12.766;2023-07-16T09:58:16;1.55;;;1.45;;
14241;SDS011;7205;50.864;12.766;2023-07-16T10:00:47;5.13;;;1.60;;
14241;SDS011;7205;50.864;12.766;2023-07-16T10:03:16;2.83;;;1.60;;
14241;SDS011;7205;50.864;12.766;2023-07-16T10:05:43;2.80;;;1.52;;
14241;SDS011;7205;50.864;12.766;2023-07-16T10:08:16;1.45;;;1.35;;
14241;SDS011;7205;50.864;12.766;2023-07-16T10:10:45;3.97;;;1.55;;
14241;SDS011;7205;50.864;12.766;2023-07-16T10:13:14;2.67;;;1.40;;
14241;SDS011;7205;50.864;12.766;2023-07-16T10:15:50;2.95;;;1.55;;
14241;SDS011;7205;50.864;12.766;2023-07-16T10:18:27;1.40;;;1.30;;
14241;SDS011;7205;50.864;12.766;2023-07-16T10:20:59;4.47;;;1.60;;
14241;SDS011;7205;50.864;12.766;2023-07-16T10:23:36;1.98;;;1.50;;
14241;SDS011;7205;50.864;12.766;2023-07-16T10:26:04;3.53;;;1.90;;
14241;SDS011;7205;50.864;12.766;2023-07-16T10:28:32;1.67;;;1.58;;
14241;SDS011;7205;50.864;12.766;2023-07-16T10:30:59;4.22;;;1.70;;
14241;SDS011;7205;50.864;12.766;2023-07-16T10:33:27;2.55;;;1.58;;
14241;SDS011;7205;50.864;12.766;2023-07-16T10:35:56;4.30;;;1.42;;
14241;SDS011;7205;50.864;12.766;2023-07-16T10:38:23;2.72;;;1.40;;
14241;SDS011;7205;50.864;12.766;2023-07-16T10:40:50;1.50;;;1.40;;
14241;SDS011;7205;50.864;12.766;2023-07-16T10:43:22;1.42;;;1.30;;
14241;SDS011;7205;50.864;12.766;2023-07-16T10:45:50;3.33;;;1.77;;
14241;SDS011;7205;50.864;12.766;2023-07-16T10:48:17;2.78;;;1.55;;
14241;SDS011;7205;50.864;12.766;2023-07-16T10:50:45;2.88;;;1.60;;
14241;SDS011;7205;50.864;12.766;2023-07-16T10:53:12;1.65;;;1.52;;
14241;SDS011;7205;50.864;12.766;2023-07-16T10:55:39;1.80;;;1.67;;
14241;SDS011;7205;50.864;12.766;2023-07-16T10:58:07;2.58;;;1.95;;
14241;SDS011;7205;50.864;12.766;2023-07-16T11:00:36;2.10;;;1.67;;
14241;SDS011;7205;50.864;12.766;2023-07-16T11:03:03;1.50;;;1.45;;
14241;SDS011;7205;50.864;12.766;2023-07-16T11:05:30;3.90;;;1.85;;
14241;SDS011;7205;50.864;12.766;2023-07-16T11:07:59;1.83;;;1.60;;
14241;SDS011;7205;50.864;12.766;2023-07-16T11:10:27;5.80;;;1.88;;
14241;SDS011;7205;50.864;12.766;2023-07-16T11:12:55;3.10;;;1.98;;
14241;SDS011;7205;50.864;12.766;2023-07-16T11:15:31;2.38;;;1.73;;
14241;SDS011;7205;50.864;12.766;2023-07-16T11:17:58;1.88;;;1.60;;
14241;SDS011;7205;50.864;12.766;2023-07-16T11:20:25;5.47;;;1.88;;
14241;SDS011;7205;50.864;12.766;2023-07-16T11:22:52;2.78;;;1.73;;
14241;SDS011;7205;50.864;12.766;2023-07-16T11:25:23;1.60;;;1.50;;
14241;SDS011;7205;50.864;12.766;2023-07-16T11:27:50;2.65;;;1.70;;
14241;SDS011;7205;50.864;12.766;2023-07-16T11:30:22;1.80;;;1.50;;
14241;SDS011;7205;50.864;12.766;2023-07-16T11:32:57;3.75;;;1.95;;
14241;SDS011;7205;50.864;12.766;2023-07-16T11:35:29;1.50;;;1.33;;
14241;SDS011;7205;50.864;12.766;2023-07-16T11:37:56;2.63;;;1.50;;
14241;SDS011;7205;50.864;12.766;2023-07-16T11:40:24;2.63;;;1.70;;
14241;SDS011;7205;50.864;12.766;2023-07-16T11:42:51;2.33;;;1.95;;
14241;SDS011;7205;50.864;12.766;2023-07-16T11:45:19;2.80;;;1.60;;
14241;SDS011;7205;50.864;12.766;2023-07-16T11:47:48;1.80;;;1.38;;
14241;SDS011;7205;50.864;12.766;2023-07-16T11:50:15;1.50;;;1.40;;
14241;SDS011;7205;50.864;12.766;2023-07-16T11:52:42;3.55;;;1.70;;
14241;SDS011;7205;50.864;12.766;2023-07-16T11:55:09;4.88;;;1.90;;
14241;SDS011;7205;50.864;12.766;2023-07-16T11:57:37;3.58;;;1.70;;
14241;SDS011;7205;50.864;12.766;2023-07-16T12:00:04;8.65;;;1.70;;
14241;SDS011;7205;50.864;12.766;2023-07-16T12:02:32;1.85;;;1.42;;
14241;SDS011;7205;50.864;12.766;2023-07-16T12:04:59;3.10;;;1.77;;
14241;SDS011;7205;50.864;12.766;2023-07-16T12:07:35;1.80;;;1.70;;
14241;SDS011;7205;50.864;12.766;2023-07-16T12:10:04;2.97;;;1.70;;
14241;SDS011;7205;50.864;12.766;2023-07-16T12:12:33;4.72;;;1.65;;
14241;SDS011;7205;50.864;12.766;2023-07-16T12:15:04;2.00;;;1.80;;
14241;SDS011;7205;50.864;12.766;2023-07-16T12:17:33;1.77;;;1.67;;
14241;SDS011;7205;50.864;12.766;2023-07-16T12:20:00;1.70;;;1.60;;
14241;SDS011;7205;50.864;12.766;2023-07-16T12:22:28;2.60;;;1.40;;
14241;SDS011;7205;50.864;12.766;2023-07-16T12:24:55;4.40;;;1.98;;
14241;SDS011;7205;50.864;12.766;2023-07-16T12:27:22;4.00;;;1.70;;
14241;SDS011;7205;50.864;12.766;2023-07-16T12:29:49;3.00;;;1.50;;
14241;SDS011;7205;50.864;12.766;2023-07-16T12:32:18;3.53;;;1.80;;
14241;SDS011;7205;50.864;12.766;2023-07-16T12:34:46;3.72;;;1.92;;
14241;SDS011;7205;50.864;12.766;2023-07-16T12:37:13;2.25;;;2.05;;
14241;SDS011;7205;50.864;12.766;2023-07-16T12:39:42;2.40;;;1.75;;
14241;SDS011;7205;50.864;12.766;2023-07-16T12:42:24;1.77;;;1.67;;
14241;SDS011;7205;50.864;12.766;2023-07-16T12:44:51;4.90;;;1.80;;
14241;SDS011;7205;50.864;12.766;2023-07-16T12:47:32;2.00;;;1.60;;
14241;SDS011;7205;50.864;12.766;2023-07-16T12:50:00;2.95;;;1.90;;
14241;SDS011;7205;50.864;12.766;2023-07-16T12:52:27;2.60;;;1.65;;
14241;SDS011;7205;50.864;12.766;2023-07-16T12:54:54;2.15;;;1.60;;
14241;SDS011;7205;50.864;12.766;2023-07-16T12:57:21;3.55;;;1.52;;
14241;SDS011;7205;50.864;12.766;2023-07-16T12:59:49;3.53;;;1.83;;
14241;SDS011;7205;50.864;12.766;2023-07-16T13:02:16;1.48;;;1.30;;
14241;SDS011;7205;50.864;12.766;2023-07-16T13:04:46;2.58;;;1.60;;
14241;SDS011;7205;50.864;12.766;2023-07-16T13:07:13;3.33;;;1.50;;
14241;SDS011;7205;50.864;12.766;2023-07-16T13:09:40;3.80;;;1.52;;
14241;SDS011;7205;50.864;12.766;2023-07-16T13:12:07;4.05;;;1.45;;
14241;SDS011;7205;50.864;12.766;2023-07-16T13:14:34;5.25;;;1.65;;
14241;SDS011;7205;50.864;12.766;2023-07-16T13:17:01;3.15;;;1.73;;
14241;SDS011;7205;50.864;12.766;2023-07-16T13:19:29;1.73;;;1.40;;
14241;SDS011;7205;50.864;12.766;2023-07-16T13:21:57;3.70;;;1.67;;
14241;SDS011;7205;50.864;12.766;2023-07-16T13:24:24;2.10;;;1.60;;
14241;SDS011;7205;50.864;12.766;2023-07-16T13:26:51;2.30;;;1.40;;
14241;SDS011;7205;50.864;12.766;2023-07-16T13:29:18;1.65;;;1.52;;
14241;SDS011;7205;50.864;12.766;2023-07-16T13:31:46;4.00;;;1.50;;
14241;SDS011;7205;50.864;12.766;2023-07-16T13:34:12;1.77;;;1.67;;
14241;SDS011;7205;50.864;12.766;2023-07-16T13:36:39;3.45;;;1.95;;
14241;SDS011;7205;50.864;12.766;2023-07-16T13:39:07;9.07;;;1.42;;
14241;SDS011;7205;50.864;12.766;2023-07-16T13:41:34;1.40;;;1.30;;
14241;SDS011;7205;50.864;12.766;2023-07-16T13:44:01;2.65;;;1.38;;
14241;SDS011;7205;50.864;12.766;2023-07-16T13:46:29;3.05;;;1.58;;
14241;SDS011;7205;50.864;12.766;2023-07-16T13:48:56;3.78;;;1.70;;
14241;SDS011;7205;50.864;12.766;2023-07-16T13:51:25;4.20;;;1.55;;
14241;SDS011;7205;50.864;12.766;2023-07-16T13:53:52;2.67;;;1.40;;
14241;SDS011;7205;50.864;12.766;2023-07-16T13:56:20;3.47;;;1.50;;
14241;SDS011;7205;50.864;12.766;2023-07-16T13:58:46;2.13;;;1.65;;
14241;SDS011;7205;50.864;12.766;2023-07-16T14:01:14;2.60;;;1.60;;
14241;SDS011;7205;50.864;12.766;2023-07-16T14:03:41;3.58;;;1.38;;
14241;SDS011;7205;50.864;12.766;2023-07-16T14:06:08;2.65;;;1.80;;
14241;SDS011;7205;50.864;12.766;2023-07-16T14:08:35;2.28;;;1.50;;
14241;SDS011;7205;50.864;12.766;2023-07-16T14:11:02;3.70;;;1.42;;
14241;SDS011;7205;50.864;12.766;2023-07-16T14:13:30;4.57;;;1.45;;
14241;SDS011;7205;50.864;12.766;2023-07-16T14:15:57;1.60;;;1.50;;
14241;SDS011;7205;50.864;12.766;2023-07-16T14:18:24;2.10;;;1.25;;
14241;SDS011;7205;50.864;12.766;2023-07-16T14:20:51;2.50;;;1.60;;
14241;SDS011;7205;50.864;12.766;2023-07-16T14:23:18;2.30;;;1.65;;
14241;SDS011;7205;50.864;12.766;2023-07-16T14:25:44;2.30;;;1.48;;
14241;SDS011;7205;50.864;12.766;2023-07-16T14:28:11;5.70;;;1.88;;
14241;SDS011;7205;50.864;12.766;2023-07-16T14:30:39;2.70;;;1.80;;
14241;SDS011;7205;50.864;12.766;2023-07-16T14:33:06;3.95;;;1.23;;
14241;SDS011;7205;50.864;12.766;2023-07-16T14:35:33;4.65;;;1.58;;
14241;SDS011;7205;50.864;12.766;2023-07-16T14:38:00;3.15;;;1.60;;
14241;SDS011;7205;50.864;12.766;2023-07-16T14:40:27;3.72;;;1.65;;
14241;SDS011;7205;50.864;12.766;2023-07-16T14:42:54;2.90;;;1.60;;
14241;SDS011;7205;50.864;12.766;2023-07-16T14:45:21;2.67;;;1.95;;
14241;SDS011;7205;50.864;12.766;2023-07-16T14:47:49;2.70;;;1.70;;
14241;SDS011;7205;50.864;12.766;2023-07-16T14:50:16;2.95;;;1.67;;
14241;SDS011;7205;50.864;12.766;2023-07-16T14:52:43;3.90;;;1.60;;
14241;SDS011;7205;50.864;12.766;2023-07-16T14:55:09;1.40;;;1.27;;
14241;SDS011;7205;50.864;12.766;2023-07-16T14:57:37;4.38;;;1.50;;
14241;SDS011;7205;50.864;12.766;2023-07-16T15:00:04;2.45;;;1.80;;